createdAt,value
2022-12-15T00:00:30.302Z,951.34
2022-12-15T00:01:20.189Z,951.38
2022-12-15T00:02:10.252Z,951.34
2022-12-15T00:03:00.303Z,951.38
2022-12-15T00:03:50.294Z,951.39
2022-12-15T00:04:40.244Z,951.44
2022-12-15T00:05:30.143Z,951.39
2022-12-15T00:06:20.369Z,951.43
2022-12-15T00:07:10.122Z,951.40
2022-12-15T00:08:00.092Z,951.43
2022-12-15T00:08:50.315Z,951.48
2022-12-15T00:09:40.828Z,951.47
2022-12-15T00:10:30.130Z,951.47
2022-12-15T00:11:20.191Z,951.46
2022-12-15T00:12:10.051Z,951.44
2022-12-15T00:13:00.062Z,951.45
2022-12-15T00:13:50.041Z,951.39
2022-12-15T00:14:40.031Z,951.41
2022-12-15T00:15:30.049Z,951.39
2022-12-15T00:16:20.100Z,951.40
2022-12-15T00:17:10.018Z,951.41
2022-12-15T00:18:00.053Z,951.43
2022-12-15T00:18:49.988Z,951.43
2022-12-15T00:19:39.968Z,951.43
2022-12-15T00:20:29.980Z,951.40
2022-12-15T00:21:20.088Z,951.42
2022-12-15T00:22:10.070Z,951.49
2022-12-15T00:22:59.968Z,951.44
2022-12-15T00:23:50.226Z,951.45
2022-12-15T00:24:39.928Z,951.46
2022-12-15T00:25:29.931Z,951.49
2022-12-15T00:26:19.927Z,951.53
2022-12-15T00:27:10.295Z,951.56
2022-12-15T00:27:59.878Z,951.56
2022-12-15T00:28:50.032Z,951.57
2022-12-15T00:29:39.866Z,951.57
2022-12-15T00:30:29.872Z,951.57
2022-12-15T00:31:19.909Z,951.57
2022-12-15T00:32:09.859Z,951.52
2022-12-15T00:32:59.839Z,951.58
2022-12-15T00:33:49.855Z,951.51
2022-12-15T00:34:39.827Z,951.60
2022-12-15T00:35:29.929Z,951.55
2022-12-15T00:36:19.796Z,951.58
2022-12-15T00:37:09.930Z,951.55
2022-12-15T00:37:59.779Z,951.58
2022-12-15T00:38:49.824Z,951.56
2022-12-15T00:39:39.765Z,951.61
2022-12-15T00:40:29.774Z,951.63
2022-12-15T00:41:19.760Z,951.64
2022-12-15T00:42:09.754Z,951.67
2022-12-15T00:42:59.938Z,951.70
2022-12-15T00:43:49.726Z,951.68
2022-12-15T00:44:39.706Z,951.69
2022-12-15T00:45:29.763Z,951.65
2022-12-15T00:46:20.004Z,951.65
2022-12-15T00:47:09.833Z,951.66
2022-12-15T00:47:59.672Z,951.66
2022-12-15T00:48:49.822Z,951.70
2022-12-15T00:49:39.679Z,951.69
2022-12-15T00:50:29.740Z,951.72
2022-12-15T00:51:19.635Z,951.72
2022-12-15T00:52:09.668Z,951.79
2022-12-15T00:52:59.622Z,951.83
2022-12-15T00:53:49.790Z,951.77
2022-12-15T00:54:39.934Z,951.76
2022-12-15T00:55:29.601Z,951.82
2022-12-15T00:56:19.618Z,951.77
2022-12-15T00:57:09.581Z,951.80
2022-12-15T00:57:59.613Z,951.80
2022-12-15T00:58:49.571Z,951.79
2022-12-15T00:59:39.551Z,951.79
2022-12-15T01:00:29.668Z,951.80
2022-12-15T01:01:19.893Z,951.77
2022-12-15T01:02:09.628Z,951.78
2022-12-15T01:02:59.743Z,951.75
2022-12-15T01:03:49.681Z,951.76
2022-12-15T01:04:39.478Z,951.72
2022-12-15T01:05:29.631Z,951.79
2022-12-15T01:06:19.489Z,951.78
2022-12-15T01:07:09.528Z,951.81
2022-12-15T01:07:59.588Z,951.82
2022-12-15T01:08:49.439Z,951.85
2022-12-15T01:09:39.438Z,951.86
2022-12-15T01:10:29.500Z,951.84
2022-12-15T01:11:19.416Z,951.85
2022-12-15T01:12:09.441Z,951.85
2022-12-15T01:12:59.398Z,951.80
2022-12-15T01:13:49.675Z,951.76
2022-12-15T01:14:39.417Z,951.80
2022-12-15T01:15:29.474Z,951.75
2022-12-15T01:16:19.461Z,951.77
2022-12-15T01:17:09.365Z,951.80
2022-12-15T01:17:59.335Z,951.84
2022-12-15T01:18:49.607Z,951.83
2022-12-15T01:19:39.335Z,951.86
2022-12-15T01:20:29.315Z,951.89
2022-12-15T01:21:24.109Z,951.91
2022-12-15T01:22:10.335Z,951.91
2022-12-15T01:22:59.284Z,951.87
2022-12-15T01:23:49.274Z,951.88
2022-12-15T01:24:39.267Z,951.88
2022-12-15T01:25:29.263Z,951.91
2022-12-15T01:26:19.369Z,951.83
2022-12-15T01:27:09.264Z,951.88
2022-12-15T01:27:59.242Z,951.87
2022-12-15T01:28:49.265Z,951.86
2022-12-15T01:29:39.213Z,951.90
2022-12-15T01:30:29.225Z,951.95
2022-12-15T01:31:19.210Z,951.96
2022-12-15T01:32:09.213Z,951.98
2022-12-15T01:32:59.194Z,952.00
2022-12-15T01:33:49.163Z,952.02
2022-12-15T01:34:39.171Z,952.07
2022-12-15T01:35:29.153Z,952.03
2022-12-15T01:36:19.154Z,952.03
2022-12-15T01:37:09.125Z,952.00
2022-12-15T01:37:59.151Z,952.03
2022-12-15T01:38:53.878Z,952.03
2022-12-15T01:39:40.103Z,952.07
2022-12-15T01:40:29.119Z,952.02
2022-12-15T01:41:19.129Z,952.03
2022-12-15T01:42:09.069Z,952.03
2022-12-15T01:42:59.086Z,952.05
2022-12-15T01:43:49.798Z,952.00
2022-12-15T01:44:39.050Z,952.04
2022-12-15T01:45:29.092Z,952.01
2022-12-15T01:46:19.160Z,952.05
2022-12-15T01:47:09.065Z,952.04
2022-12-15T01:47:59.027Z,952.06
2022-12-15T01:48:49.008Z,952.06
2022-12-15T01:49:39.018Z,952.08
2022-12-15T01:50:28.988Z,952.04
2022-12-15T01:51:18.977Z,952.05
2022-12-15T01:52:08.956Z,952.08
2022-12-15T01:52:58.966Z,952.08
2022-12-15T01:53:50.198Z,952.06
2022-12-15T01:54:38.967Z,952.10
2022-12-15T01:55:28.945Z,952.09
2022-12-15T01:56:18.936Z,952.11
2022-12-15T01:57:08.905Z,952.09
2022-12-15T01:57:58.907Z,952.13
2022-12-15T01:58:48.911Z,952.08
2022-12-15T01:59:38.895Z,952.07
2022-12-15T02:00:28.977Z,952.10
2022-12-15T02:01:19.056Z,952.05
2022-12-15T02:02:09.017Z,952.07
2022-12-15T02:02:59.064Z,952.10
2022-12-15T02:03:48.876Z,952.08
2022-12-15T02:04:38.839Z,952.12
2022-12-15T02:05:28.844Z,952.11
2022-12-15T02:06:18.895Z,952.09
2022-12-15T02:07:08.794Z,952.09
2022-12-15T02:07:58.795Z,952.14
2022-12-15T02:08:48.784Z,952.15
2022-12-15T02:09:38.783Z,952.18
2022-12-15T02:10:28.773Z,952.15
2022-12-15T02:11:18.770Z,952.18
2022-12-15T02:12:08.788Z,952.21
2022-12-15T02:12:58.754Z,952.15
2022-12-15T02:13:49.854Z,952.16
2022-12-15T02:14:38.724Z,952.19
2022-12-15T02:15:28.714Z,952.21
2022-12-15T02:16:18.780Z,952.20
2022-12-15T02:17:08.691Z,952.23
2022-12-15T02:17:58.725Z,952.24
2022-12-15T02:18:48.669Z,952.22
2022-12-15T02:19:38.681Z,952.24
2022-12-15T02:20:28.672Z,952.21
2022-12-15T02:21:18.640Z,952.18
2022-12-15T02:22:08.650Z,952.21
2022-12-15T02:22:58.644Z,952.18
2022-12-15T02:23:48.654Z,952.13
2022-12-15T02:24:38.609Z,952.18
2022-12-15T02:25:28.612Z,952.15
2022-12-15T02:26:18.593Z,952.22
2022-12-15T02:27:08.570Z,952.20
2022-12-15T02:27:58.587Z,952.14
2022-12-15T02:28:48.559Z,952.21
2022-12-15T02:29:38.629Z,952.21
2022-12-15T02:30:28.540Z,952.13
2022-12-15T02:31:18.568Z,952.18
2022-12-15T02:32:08.561Z,952.17
2022-12-15T02:32:58.519Z,952.19
2022-12-15T02:33:48.511Z,952.21
2022-12-15T02:34:38.507Z,952.22
2022-12-15T02:35:28.528Z,952.21
2022-12-15T02:36:18.500Z,952.21
2022-12-15T02:37:08.477Z,952.23
2022-12-15T02:37:58.468Z,952.25
2022-12-15T02:38:48.449Z,952.26
2022-12-15T02:39:38.446Z,952.30
2022-12-15T02:40:28.437Z,952.28
2022-12-15T02:41:18.469Z,952.28
2022-12-15T02:42:08.425Z,952.25
2022-12-15T02:42:58.426Z,952.28
2022-12-15T02:43:48.403Z,952.22
2022-12-15T02:44:38.403Z,952.20
2022-12-15T02:45:28.413Z,952.27
2022-12-15T02:46:18.493Z,952.32
2022-12-15T02:47:08.363Z,952.29
2022-12-15T02:47:58.354Z,952.27
2022-12-15T02:48:48.342Z,952.34
2022-12-15T02:49:38.345Z,952.32
2022-12-15T02:50:28.346Z,952.31
2022-12-15T02:51:18.315Z,952.34
2022-12-15T02:52:08.504Z,952.34
2022-12-15T02:52:58.314Z,952.37
2022-12-15T02:53:48.283Z,952.40
2022-12-15T02:54:38.285Z,952.39
2022-12-15T02:55:28.273Z,952.42
2022-12-15T02:56:18.283Z,952.43
2022-12-15T02:57:08.251Z,952.44
2022-12-15T02:57:58.282Z,952.44
2022-12-15T02:58:48.242Z,952.41
2022-12-15T02:59:38.233Z,952.44
2022-12-15T03:00:28.237Z,952.40
2022-12-15T03:01:18.324Z,952.46
2022-12-15T03:02:08.454Z,952.43
2022-12-15T03:02:58.262Z,952.48
2022-12-15T03:03:48.231Z,952.43
2022-12-15T03:04:38.188Z,952.45
2022-12-15T03:05:28.163Z,952.41
2022-12-15T03:06:18.170Z,952.37
2022-12-15T03:07:08.140Z,952.42
2022-12-15T03:07:58.148Z,952.39
2022-12-15T03:08:48.140Z,952.37
2022-12-15T03:09:38.159Z,952.34
2022-12-15T03:10:28.107Z,952.43
2022-12-15T03:11:18.109Z,952.39
2022-12-15T03:12:08.093Z,952.38
2022-12-15T03:12:58.080Z,952.38
2022-12-15T03:13:49.811Z,952.41
2022-12-15T03:14:38.080Z,952.39
2022-12-15T03:15:33.522Z,952.43
2022-12-15T03:16:19.072Z,952.42
2022-12-15T03:17:08.037Z,952.44
2022-12-15T03:17:58.038Z,952.44
2022-12-15T03:18:48.027Z,952.38
2022-12-15T03:19:38.036Z,952.42
2022-12-15T03:20:28.011Z,952.40
2022-12-15T03:21:18.020Z,952.43
2022-12-15T03:22:07.976Z,952.36
2022-12-15T03:22:57.976Z,952.36
2022-12-15T03:23:47.976Z,952.39
2022-12-15T03:24:37.966Z,952.41
2022-12-15T03:25:27.956Z,952.40
2022-12-15T03:26:17.936Z,952.43
2022-12-15T03:27:07.960Z,952.42
2022-12-15T03:27:57.915Z,952.37
2022-12-15T03:28:48.104Z,952.40
2022-12-15T03:29:37.915Z,952.37
2022-12-15T03:30:27.887Z,952.40
2022-12-15T03:31:17.920Z,952.43
2022-12-15T03:32:07.949Z,952.47
2022-12-15T03:32:57.864Z,952.49
2022-12-15T03:33:47.854Z,952.48
2022-12-15T03:34:37.967Z,952.50
2022-12-15T03:35:27.843Z,952.53
2022-12-15T03:36:17.831Z,952.51
2022-12-15T03:37:07.814Z,952.56
2022-12-15T03:37:57.822Z,952.60
2022-12-15T03:38:47.828Z,952.58
2022-12-15T03:39:37.816Z,952.57
2022-12-15T03:40:27.791Z,952.58
2022-12-15T03:41:17.782Z,952.57
2022-12-15T03:42:07.761Z,952.56
2022-12-15T03:42:57.755Z,952.54
2022-12-15T03:43:49.761Z,952.56
2022-12-15T03:44:37.771Z,952.59
2022-12-15T03:45:27.748Z,952.57
2022-12-15T03:46:17.805Z,952.55
2022-12-15T03:47:07.718Z,952.53
2022-12-15T03:47:57.710Z,952.57
2022-12-15T03:48:47.689Z,952.56
2022-12-15T03:49:37.692Z,952.65
2022-12-15T03:50:27.712Z,952.61
2022-12-15T03:51:17.678Z,952.64
2022-12-15T03:52:07.653Z,952.65
2022-12-15T03:52:57.659Z,952.67
2022-12-15T03:53:47.629Z,952.64
2022-12-15T03:54:37.628Z,952.63
2022-12-15T03:55:27.678Z,952.65
2022-12-15T03:56:17.629Z,952.62
2022-12-15T03:57:07.608Z,952.62
2022-12-15T03:57:57.588Z,952.64
2022-12-15T03:58:47.598Z,952.65
2022-12-15T03:59:37.575Z,952.68
2022-12-15T04:00:27.589Z,952.67
2022-12-15T04:01:17.698Z,952.69
2022-12-15T04:02:07.748Z,952.70
2022-12-15T04:02:57.695Z,952.67
2022-12-15T04:03:47.628Z,952.63
2022-12-15T04:04:37.526Z,952.67
2022-12-15T04:05:27.512Z,952.63
2022-12-15T04:06:17.506Z,952.61
2022-12-15T04:07:07.524Z,952.59
2022-12-15T04:07:57.488Z,952.64
2022-12-15T04:08:47.487Z,952.60
2022-12-15T04:09:37.475Z,952.58
2022-12-15T04:10:33.578Z,952.60
2022-12-15T04:11:18.466Z,952.64
2022-12-15T04:12:07.435Z,952.60
2022-12-15T04:12:57.456Z,952.61
2022-12-15T04:13:47.434Z,952.58
2022-12-15T04:14:37.412Z,952.57
2022-12-15T04:15:27.406Z,952.55
2022-12-15T04:16:20.117Z,952.57
2022-12-15T04:17:07.436Z,952.55
2022-12-15T04:17:57.391Z,952.54
2022-12-15T04:18:47.362Z,952.59
2022-12-15T04:19:37.382Z,952.62
2022-12-15T04:20:27.351Z,952.63
2022-12-15T04:21:17.342Z,952.62
2022-12-15T04:22:07.353Z,952.64
2022-12-15T04:22:57.329Z,952.65
2022-12-15T04:23:47.313Z,952.70
2022-12-15T04:24:37.308Z,952.72
2022-12-15T04:25:27.290Z,952.71
2022-12-15T04:26:17.281Z,952.72
2022-12-15T04:27:07.270Z,952.72
2022-12-15T04:28:01.533Z,952.71
2022-12-15T04:28:47.261Z,952.64
2022-12-15T04:29:37.252Z,952.61
2022-12-15T04:30:27.324Z,952.67
2022-12-15T04:31:17.286Z,952.66
2022-12-15T04:32:07.232Z,952.66
2022-12-15T04:32:57.221Z,952.66
2022-12-15T04:33:47.529Z,952.65
2022-12-15T04:34:37.191Z,952.63
2022-12-15T04:35:27.200Z,952.64
2022-12-15T04:36:17.186Z,952.67
2022-12-15T04:37:07.158Z,952.71
2022-12-15T04:37:57.173Z,952.71
2022-12-15T04:38:49.988Z,952.68
2022-12-15T04:39:37.149Z,952.70
2022-12-15T04:40:27.148Z,952.74
2022-12-15T04:41:17.136Z,952.72
2022-12-15T04:42:07.119Z,952.75
2022-12-15T04:42:57.117Z,952.73
2022-12-15T04:43:47.095Z,952.78
2022-12-15T04:44:37.109Z,952.77
2022-12-15T04:45:27.085Z,952.81
2022-12-15T04:46:17.103Z,952.87
2022-12-15T04:47:07.056Z,952.84
2022-12-15T04:47:57.073Z,952.87
2022-12-15T04:48:47.038Z,952.85
2022-12-15T04:49:37.037Z,952.84
2022-12-15T04:50:27.060Z,952.80
2022-12-15T04:51:17.027Z,952.81
2022-12-15T04:52:07.005Z,952.79
2022-12-15T04:52:57.202Z,952.82
2022-12-15T04:53:46.987Z,952.83
2022-12-15T04:54:36.977Z,952.82
2022-12-15T04:55:26.974Z,952.87
2022-12-15T04:56:18.851Z,952.96
2022-12-15T04:57:06.944Z,952.96
2022-12-15T04:57:56.952Z,952.93
2022-12-15T04:58:46.924Z,952.95
2022-12-15T04:59:36.930Z,952.93
2022-12-15T05:00:26.914Z,952.94
2022-12-15T05:01:16.978Z,952.98
2022-12-15T05:02:07.117Z,952.97
2022-12-15T05:02:56.892Z,952.97
2022-12-15T05:03:46.883Z,952.97
2022-12-15T05:04:37.139Z,952.97
2022-12-15T05:05:26.872Z,952.95
2022-12-15T05:06:16.861Z,952.95
2022-12-15T05:07:06.841Z,952.97
2022-12-15T05:07:56.843Z,952.93
2022-12-15T05:08:46.820Z,952.91
2022-12-15T05:09:36.802Z,952.84
2022-12-15T05:10:27.010Z,952.87
2022-12-15T05:11:16.808Z,952.88
2022-12-15T05:12:06.789Z,952.88
2022-12-15T05:12:56.771Z,952.90
2022-12-15T05:13:46.759Z,952.87
2022-12-15T05:14:36.747Z,952.83
2022-12-15T05:15:26.857Z,952.83
2022-12-15T05:16:16.786Z,952.87
2022-12-15T05:17:06.792Z,952.87
2022-12-15T05:17:56.719Z,952.87
2022-12-15T05:18:46.737Z,952.84
2022-12-15T05:19:36.711Z,952.84
2022-12-15T05:20:26.696Z,952.84
2022-12-15T05:21:16.888Z,952.88
2022-12-15T05:22:06.697Z,952.87
2022-12-15T05:22:56.673Z,952.89
2022-12-15T05:23:46.649Z,952.90
2022-12-15T05:24:36.635Z,952.88
2022-12-15T05:25:26.649Z,952.92
2022-12-15T05:26:16.625Z,952.98
2022-12-15T05:27:06.665Z,952.97
2022-12-15T05:27:56.624Z,952.96
2022-12-15T05:28:46.595Z,952.92
2022-12-15T05:29:36.585Z,952.90
2022-12-15T05:30:26.595Z,952.89
2022-12-15T05:31:16.621Z,952.91
2022-12-15T05:32:06.615Z,952.88
2022-12-15T05:32:56.634Z,952.91
2022-12-15T05:33:46.554Z,952.99
2022-12-15T05:34:36.554Z,953.01
2022-12-15T05:35:26.525Z,953.04
2022-12-15T05:36:16.512Z,953.09
2022-12-15T05:37:06.528Z,953.12
2022-12-15T05:37:56.504Z,953.21
2022-12-15T05:38:46.534Z,953.22
2022-12-15T05:39:36.472Z,953.21
2022-12-15T05:40:26.495Z,953.22
2022-12-15T05:41:16.452Z,953.18
2022-12-15T05:42:06.461Z,953.18
2022-12-15T05:42:56.452Z,953.17
2022-12-15T05:43:46.435Z,953.17
2022-12-15T05:44:36.452Z,953.21
2022-12-15T05:45:26.422Z,953.19
2022-12-15T05:46:16.448Z,953.16
2022-12-15T05:47:06.401Z,953.18
2022-12-15T05:47:56.392Z,953.18
2022-12-15T05:48:46.382Z,953.14
2022-12-15T05:49:36.373Z,953.14
2022-12-15T05:50:26.400Z,953.14
2022-12-15T05:51:16.350Z,953.06
2022-12-15T05:52:06.370Z,953.15
2022-12-15T05:52:56.341Z,953.13
2022-12-15T05:53:46.343Z,953.12
2022-12-15T05:54:36.309Z,953.15
2022-12-15T05:55:26.319Z,953.14
2022-12-15T05:56:16.380Z,953.11
2022-12-15T05:57:06.300Z,953.06
2022-12-15T05:57:56.289Z,953.06
2022-12-15T05:58:46.278Z,953.02
2022-12-15T05:59:36.268Z,953.03
2022-12-15T06:00:26.268Z,953.09
2022-12-15T06:01:16.247Z,953.09
2022-12-15T06:02:06.534Z,953.12
2022-12-15T06:02:56.290Z,953.15
2022-12-15T06:03:46.218Z,953.07
2022-12-15T06:04:36.272Z,953.03
2022-12-15T06:05:26.208Z,953.00
2022-12-15T06:06:16.188Z,952.97
2022-12-15T06:07:06.186Z,953.02
2022-12-15T06:07:56.207Z,953.11
2022-12-15T06:08:46.216Z,953.14
2022-12-15T06:09:36.164Z,953.16
2022-12-15T06:10:26.165Z,953.15
2022-12-15T06:11:16.148Z,953.25
2022-12-15T06:12:06.135Z,953.25
2022-12-15T06:12:56.116Z,953.25
2022-12-15T06:13:46.127Z,953.18
2022-12-15T06:14:36.145Z,953.17
2022-12-15T06:15:26.106Z,953.16
2022-12-15T06:16:16.118Z,953.09
2022-12-15T06:17:06.098Z,953.06
2022-12-15T06:17:56.063Z,953.03
2022-12-15T06:18:50.051Z,953.04
2022-12-15T06:19:36.063Z,953.09
2022-12-15T06:20:26.253Z,953.07
2022-12-15T06:21:16.024Z,953.08
2022-12-15T06:22:06.042Z,953.13
2022-12-15T06:22:56.013Z,953.14
2022-12-15T06:23:46.004Z,953.11
2022-12-15T06:24:36.011Z,953.17
2022-12-15T06:25:25.992Z,953.17
2022-12-15T06:26:16.012Z,953.15
2022-12-15T06:27:05.980Z,953.19
2022-12-15T06:28:01.574Z,953.20
2022-12-15T06:28:47.162Z,953.16
2022-12-15T06:29:35.942Z,953.16
2022-12-15T06:30:25.921Z,953.16
2022-12-15T06:31:15.988Z,953.16
2022-12-15T06:32:05.920Z,953.20
2022-12-15T06:32:55.950Z,953.19
2022-12-15T06:33:45.896Z,953.15
2022-12-15T06:34:35.871Z,953.13
2022-12-15T06:35:25.871Z,953.11
2022-12-15T06:36:15.856Z,953.07
2022-12-15T06:37:05.859Z,953.04
2022-12-15T06:37:55.838Z,953.06
2022-12-15T06:38:45.870Z,953.03
2022-12-15T06:39:35.830Z,953.05
2022-12-15T06:40:25.819Z,953.03
2022-12-15T06:41:15.820Z,953.02
2022-12-15T06:42:05.816Z,953.05
2022-12-15T06:42:55.807Z,953.11
2022-12-15T06:43:45.802Z,953.13
2022-12-15T06:44:36.010Z,953.14
2022-12-15T06:45:25.767Z,953.17
2022-12-15T06:46:15.795Z,953.14
2022-12-15T06:47:05.817Z,953.10
2022-12-15T06:48:01.100Z,953.10
2022-12-15T06:48:46.730Z,953.19
2022-12-15T06:49:35.728Z,953.14
2022-12-15T06:50:25.751Z,953.15
2022-12-15T06:51:17.352Z,953.16
2022-12-15T06:52:05.696Z,953.18
2022-12-15T06:52:55.677Z,953.20
2022-12-15T06:53:45.697Z,953.21
2022-12-15T06:54:35.668Z,953.20
2022-12-15T06:55:25.655Z,953.21
2022-12-15T06:56:36.636Z,953.18
2022-12-15T06:57:05.656Z,953.16
2022-12-15T06:57:55.647Z,953.14
2022-12-15T06:58:45.624Z,953.17
2022-12-15T06:59:35.614Z,953.12
2022-12-15T07:00:25.603Z,953.14
2022-12-15T07:01:15.665Z,953.16
2022-12-15T07:02:05.835Z,953.19
2022-12-15T07:02:55.756Z,953.20
2022-12-15T07:03:45.737Z,953.19
2022-12-15T07:04:35.560Z,953.21
2022-12-15T07:05:25.563Z,953.18
2022-12-15T07:06:15.553Z,953.17
2022-12-15T07:07:05.523Z,953.16
2022-12-15T07:07:55.780Z,953.15
2022-12-15T07:08:45.511Z,953.16
2022-12-15T07:09:35.504Z,953.15
2022-12-15T07:10:25.511Z,953.20
2022-12-15T07:11:15.480Z,953.23
2022-12-15T07:12:05.491Z,953.24
2022-12-15T07:12:55.478Z,953.26
2022-12-15T07:13:45.521Z,953.30
2022-12-15T07:14:35.465Z,953.29
2022-12-15T07:15:25.440Z,953.27
2022-12-15T07:16:15.436Z,953.26
2022-12-15T07:17:05.431Z,953.31
2022-12-15T07:17:55.420Z,953.30
2022-12-15T07:18:45.398Z,953.32
2022-12-15T07:19:35.443Z,953.33
2022-12-15T07:20:28.774Z,953.39
2022-12-15T07:21:15.371Z,953.35
2022-12-15T07:22:05.388Z,953.37
2022-12-15T07:22:55.352Z,953.36
2022-12-15T07:23:54.820Z,953.40
2022-12-15T07:24:36.379Z,953.42
2022-12-15T07:25:25.327Z,953.42
2022-12-15T07:26:15.328Z,953.45
2022-12-15T07:27:05.315Z,953.49
2022-12-15T07:27:55.308Z,953.49
2022-12-15T07:28:45.301Z,953.55
2022-12-15T07:29:35.288Z,953.53
2022-12-15T07:30:25.538Z,953.56
2022-12-15T07:31:15.454Z,953.56
2022-12-15T07:32:05.364Z,953.57
2022-12-15T07:32:55.236Z,953.58
2022-12-15T07:33:45.252Z,953.61
2022-12-15T07:34:35.238Z,953.63
2022-12-15T07:35:25.236Z,953.64
2022-12-15T07:36:15.262Z,953.69
2022-12-15T07:37:05.212Z,953.69
2022-12-15T07:37:55.194Z,953.73
2022-12-15T07:38:45.185Z,953.74
2022-12-15T07:39:36.186Z,953.75
2022-12-15T07:40:25.173Z,953.78
2022-12-15T07:41:15.154Z,953.73
2022-12-15T07:42:05.186Z,953.73
2022-12-15T07:42:55.137Z,953.73
2022-12-15T07:43:45.144Z,953.72
2022-12-15T07:44:35.113Z,953.71
2022-12-15T07:45:25.154Z,953.73
2022-12-15T07:46:15.201Z,953.73
2022-12-15T07:47:05.093Z,953.75
2022-12-15T07:47:55.152Z,953.75
2022-12-15T07:48:50.486Z,953.78
2022-12-15T07:49:36.084Z,953.80
2022-12-15T07:50:25.052Z,953.89
2022-12-15T07:51:19.273Z,953.84
2022-12-15T07:52:05.069Z,953.82
2022-12-15T07:52:55.033Z,953.85
2022-12-15T07:53:45.083Z,953.85
2022-12-15T07:54:35.012Z,953.92
2022-12-15T07:55:43.615Z,953.88
2022-12-15T07:56:15.988Z,953.88
2022-12-15T07:57:05.004Z,953.87
2022-12-15T07:57:54.989Z,953.90
2022-12-15T07:58:44.972Z,953.89
2022-12-15T07:59:35.002Z,953.95
2022-12-15T08:00:24.967Z,953.98
2022-12-15T08:01:15.040Z,953.92
2022-12-15T08:02:05.209Z,953.95
2022-12-15T08:02:55.196Z,953.92
2022-12-15T08:03:45.119Z,953.90
2022-12-15T08:04:34.908Z,953.95
2022-12-15T08:05:24.931Z,953.91
2022-12-15T08:06:14.933Z,953.99
2022-12-15T08:07:04.888Z,953.91
2022-12-15T08:07:54.863Z,953.93
2022-12-15T08:08:44.877Z,953.94
2022-12-15T08:09:35.857Z,953.95
2022-12-15T08:10:24.840Z,953.96
2022-12-15T08:11:14.857Z,953.97
2022-12-15T08:12:04.846Z,953.91
2022-12-15T08:12:54.807Z,953.93
2022-12-15T08:14:35.807Z,953.99
2022-12-15T08:15:24.786Z,953.95
2022-12-15T08:16:14.815Z,953.98
2022-12-15T08:17:04.855Z,953.97
2022-12-15T08:17:54.755Z,953.95
2022-12-15T08:18:44.758Z,953.91
2022-12-15T08:19:34.736Z,953.92
2022-12-15T08:20:24.737Z,953.92
2022-12-15T08:21:14.738Z,953.92
2022-12-15T08:22:04.735Z,953.92
2022-12-15T08:22:54.755Z,953.93
2022-12-15T08:23:44.705Z,953.95
2022-12-15T08:24:34.705Z,953.98
2022-12-15T08:25:24.675Z,954.03
2022-12-15T08:26:14.684Z,954.04
2022-12-15T08:27:04.667Z,954.09
2022-12-15T08:27:54.652Z,954.07
2022-12-15T08:28:44.705Z,954.10
2022-12-15T08:29:51.412Z,954.10
2022-12-15T08:30:25.689Z,954.09
2022-12-15T08:31:14.674Z,954.09
2022-12-15T08:32:04.647Z,954.13
2022-12-15T08:32:54.595Z,954.15
2022-12-15T08:33:44.605Z,954.16
2022-12-15T08:34:34.669Z,954.17
2022-12-15T08:35:55.004Z,954.20
2022-12-15T08:36:15.581Z,954.18
2022-12-15T08:37:04.551Z,954.22
2022-12-15T08:37:54.561Z,954.14
2022-12-15T08:38:44.528Z,954.11
2022-12-15T08:39:34.529Z,954.13
2022-12-15T08:40:24.574Z,954.13
2022-12-15T08:41:14.511Z,954.13
2022-12-15T08:42:04.522Z,954.13
2022-12-15T08:42:54.502Z,954.08
2022-12-15T08:43:48.635Z,954.08
2022-12-15T08:44:34.481Z,954.04
2022-12-15T08:45:24.458Z,954.04
2022-12-15T08:46:14.604Z,954.00
2022-12-15T08:47:04.442Z,953.97
2022-12-15T08:47:54.450Z,954.01
2022-12-15T08:48:44.422Z,953.98
2022-12-15T08:49:34.409Z,954.00
2022-12-15T08:50:24.480Z,953.96
2022-12-15T08:51:14.407Z,953.97
2022-12-15T08:52:04.621Z,954.00
2022-12-15T08:53:21.254Z,954.07
2022-12-15T08:53:45.801Z,954.08
2022-12-15T08:54:34.358Z,954.06
2022-12-15T08:55:24.349Z,954.07
2022-12-15T08:56:14.339Z,954.07
2022-12-15T08:57:04.338Z,954.06
2022-12-15T08:57:54.368Z,954.05
2022-12-15T08:58:44.310Z,953.99
2022-12-15T08:59:34.308Z,954.05
2022-12-15T09:00:24.306Z,954.02
2022-12-15T09:01:19.029Z,954.05
2022-12-15T09:02:05.446Z,954.04
2022-12-15T09:02:54.322Z,954.08
2022-12-15T09:03:44.286Z,954.10
2022-12-15T09:04:34.267Z,954.14
2022-12-15T09:05:24.246Z,954.15
2022-12-15T09:06:14.248Z,954.25
2022-12-15T09:07:04.234Z,954.27
2022-12-15T09:07:54.212Z,954.32
2022-12-15T09:08:44.209Z,954.27
2022-12-15T09:09:34.261Z,954.25
2022-12-15T09:10:24.186Z,954.22
2022-12-15T09:11:14.198Z,954.19
2022-12-15T09:12:04.164Z,954.14
2022-12-15T09:12:54.153Z,954.18
2022-12-15T09:13:44.156Z,954.20
2022-12-15T09:14:34.153Z,954.21
2022-12-15T09:15:45.352Z,954.20
2022-12-15T09:16:15.130Z,954.20
2022-12-15T09:17:04.186Z,954.25
2022-12-15T09:17:54.113Z,954.21
2022-12-15T09:18:44.123Z,954.30
2022-12-15T09:19:34.102Z,954.24
2022-12-15T09:20:24.130Z,954.23
2022-12-15T09:21:14.136Z,954.28
2022-12-15T09:22:04.071Z,954.30
2022-12-15T09:22:54.070Z,954.27
2022-12-15T09:23:44.039Z,954.26
2022-12-15T09:24:35.269Z,954.26
2022-12-15T09:25:24.024Z,954.27
2022-12-15T09:26:14.023Z,954.23
2022-12-15T09:27:04.061Z,954.27
2022-12-15T09:27:54.009Z,954.23
2022-12-15T09:28:44.000Z,954.26
2022-12-15T09:29:34.982Z,954.26
2022-12-15T09:30:24.226Z,954.28
2022-12-15T09:31:14.061Z,954.30
2022-12-15T09:32:06.577Z,954.28
2022-12-15T09:32:54.997Z,954.30
2022-12-15T09:33:43.945Z,954.21
2022-12-15T09:34:33.939Z,954.21
2022-12-15T09:35:23.926Z,954.16
2022-12-15T09:36:13.899Z,954.15
2022-12-15T09:37:03.908Z,954.11
2022-12-15T09:37:53.890Z,954.15
2022-12-15T09:38:44.737Z,954.17
2022-12-15T09:39:33.867Z,954.17
2022-12-15T09:40:23.941Z,954.17
2022-12-15T09:41:13.850Z,954.14
2022-12-15T09:42:03.844Z,954.11
2022-12-15T09:43:04.869Z,954.09
2022-12-15T09:43:47.480Z,954.08
2022-12-15T09:44:33.817Z,954.07
2022-12-15T09:45:23.825Z,954.04
2022-12-15T09:46:13.863Z,954.01
2022-12-15T09:47:03.997Z,953.96
2022-12-15T09:47:53.798Z,953.99
2022-12-15T09:48:43.766Z,953.98
2022-12-15T09:49:33.765Z,953.95
2022-12-15T09:50:23.888Z,953.89
2022-12-15T09:51:13.805Z,953.88
2022-12-15T09:52:10.616Z,953.85
2022-12-15T09:52:54.817Z,953.81
2022-12-15T09:53:59.639Z,953.84
2022-12-15T09:54:34.763Z,953.88
2022-12-15T09:55:23.781Z,953.86
2022-12-15T09:56:13.692Z,953.90
2022-12-15T09:57:03.683Z,953.90
2022-12-15T09:57:53.674Z,953.89
2022-12-15T09:58:43.882Z,953.91
2022-12-15T09:59:33.673Z,953.93
2022-12-15T10:00:23.712Z,953.90
2022-12-15T10:01:13.643Z,953.94
2022-12-15T10:02:03.818Z,953.96
2022-12-15T10:02:53.707Z,953.98
2022-12-15T10:03:43.790Z,953.99
2022-12-15T10:04:33.655Z,953.95
2022-12-15T10:05:33.684Z,953.93
2022-12-15T10:06:16.747Z,953.94
2022-12-15T10:07:03.572Z,953.95
2022-12-15T10:07:53.553Z,953.86
2022-12-15T10:08:43.562Z,953.86
2022-12-15T10:09:33.558Z,953.77
2022-12-15T10:10:23.769Z,953.83
2022-12-15T10:11:13.541Z,953.74
2022-12-15T10:12:03.514Z,953.73
2022-12-15T10:13:01.701Z,953.77
2022-12-15T10:13:44.709Z,953.76
2022-12-15T10:14:33.491Z,953.77
2022-12-15T10:15:23.481Z,953.70
2022-12-15T10:16:13.533Z,953.74
2022-12-15T10:17:03.467Z,953.72
2022-12-15T10:17:53.449Z,953.68
2022-12-15T10:18:43.461Z,953.73
2022-12-15T10:19:33.479Z,953.75
2022-12-15T10:20:23.451Z,953.74
2022-12-15T10:21:13.408Z,953.78
2022-12-15T10:22:03.426Z,953.79
2022-12-15T10:22:53.408Z,953.82
2022-12-15T10:23:43.411Z,953.88
2022-12-15T10:25:30.112Z,953.86